sensor_id;sensor_type;location;lat;lon;timestamp;temperature;humidity
997;DHT22;487;50.126;8.698;2024-01-30T00:01:07;6.00;99.90
997;DHT22;487;50.126;8.698;2024-01-30T00:03:35;6.00;99.90
997;DHT22;487;50.126;8.698;2024-01-30T00:06:04;6.00;99.90
997;DHT22;487;50.126;8.698;2024-01-30T00:08:32;6.00;99.90
997;DHT22;487;50.126;8.698;2024-01-30T00:11:01;6.00;99.90
997;DHT22;487;50.126;8.698;2024-01-30T00:13:29;6.00;99.90
997;DHT22;487;50.126;8.698;2024-01-30T00:15:57;5.90;99.90
997;DHT22;487;50.126;8.698;2024-01-30T00:18:24;5.90;99.90
997;DHT22;487;50.126;8.698;2024-01-30T00:20:52;5.90;99.90
997;DHT22;487;50.126;8.698;2024-01-30T00:23:20;6.00;99.90
997;DHT22;487;50.126;8.698;2024-01-30T00:25:48;5.90;99.90
997;DHT22;487;50.126;8.698;2024-01-30T00:28:17;5.90;99.90
997;DHT22;487;50.126;8.698;2024-01-30T00:30:45;5.90;99.90
997;DHT22;487;50.126;8.698;2024-01-30T00:33:13;5.90;99.90
997;DHT22;487;50.126;8.698;2024-01-30T00:35:42;6.40;99.90
997;DHT22;487;50.126;8.698;2024-01-30T00:38:09;5.90;99.90
997;DHT22;487;50.126;8.698;2024-01-30T00:40:37;5.80;99.90
997;DHT22;487;50.126;8.698;2024-01-30T00:43:05;5.80;99.90
997;DHT22;487;50.126;8.698;2024-01-30T00:45:35;5.70;99.90
997;DHT22;487;50.126;8.698;2024-01-30T00:48:03;5.70;99.90
997;DHT22;487;50.126;8.698;2024-01-30T00:50:31;5.70;99.90
997;DHT22;487;50.126;8.698;2024-01-30T00:52:59;5.70;99.90
997;DHT22;487;50.126;8.698;2024-01-30T00:55:27;5.70;99.90
997;DHT22;487;50.126;8.698;2024-01-30T00:57:55;5.70;99.90
997;DHT22;487;50.126;8.698;2024-01-30T01:00:23;5.70;99.90
997;DHT22;487;50.126;8.698;2024-01-30T01:02:57;5.70;99.90
997;DHT22;487;50.126;8.698;2024-01-30T01:05:25;5.70;99.90
997;DHT22;487;50.126;8.698;2024-01-30T01:07:52;5.60;99.90
997;DHT22;487;50.126;8.698;2024-01-30T01:12:49;5.60;99.90
997;DHT22;487;50.126;8.698;2024-01-30T01:15:17;5.60;99.90
997;DHT22;487;50.126;8.698;2024-01-30T01:17:45;5.60;99.90
997;DHT22;487;50.126;8.698;2024-01-30T01:20:14;5.60;99.90
997;DHT22;487;50.126;8.698;2024-01-30T01:22:42;5.60;99.90
997;DHT22;487;50.126;8.698;2024-01-30T01:25:10;5.60;99.90
997;DHT22;487;50.126;8.698;2024-01-30T01:27:38;5.50;99.90
997;DHT22;487;50.126;8.698;2024-01-30T01:30:09;5.50;99.90
997;DHT22;487;50.126;8.698;2024-01-30T01:32:38;5.40;99.90
997;DHT22;487;50.126;8.698;2024-01-30T01:35:11;5.40;99.90
997;DHT22;487;50.126;8.698;2024-01-30T01:37:41;5.40;99.90
997;DHT22;487;50.126;8.698;2024-01-30T01:40:09;5.40;99.90
997;DHT22;487;50.126;8.698;2024-01-30T01:42:37;5.40;99.90
997;DHT22;487;50.126;8.698;2024-01-30T01:45:06;5.40;99.90
997;DHT22;487;50.126;8.698;2024-01-30T01:47:34;5.40;99.90
997;DHT22;487;50.126;8.698;2024-01-30T01:50:02;5.40;99.90
997;DHT22;487;50.126;8.698;2024-01-30T01:52:31;5.40;99.90
997;DHT22;487;50.126;8.698;2024-01-30T01:55:00;5.30;99.90
997;DHT22;487;50.126;8.698;2024-01-30T01:57:28;5.30;99.90
997;DHT22;487;50.126;8.698;2024-01-30T01:59:56;5.30;99.90
997;DHT22;487;50.126;8.698;2024-01-30T02:02:24;5.30;99.90
997;DHT22;487;50.126;8.698;2024-01-30T02:04:53;5.30;99.90
997;DHT22;487;50.126;8.698;2024-01-30T02:07:22;5.30;99.90
997;DHT22;487;50.126;8.698;2024-01-30T02:09:50;5.30;99.90
997;DHT22;487;50.126;8.698;2024-01-30T02:12:20;5.30;99.90
997;DHT22;487;50.126;8.698;2024-01-30T02:14:48;5.30;99.90
997;DHT22;487;50.126;8.698;2024-01-30T02:17:17;5.30;99.90
997;DHT22;487;50.126;8.698;2024-01-30T02:19:44;5.30;99.90
997;DHT22;487;50.126;8.698;2024-01-30T02:22:14;6.60;99.90
997;DHT22;487;50.126;8.698;2024-01-30T02:24:42;5.20;99.90
997;DHT22;487;50.126;8.698;2024-01-30T02:27:10;5.20;99.90
997;DHT22;487;50.126;8.698;2024-01-30T02:29:38;5.20;99.90
997;DHT22;487;50.126;8.698;2024-01-30T02:32:07;5.20;99.90
997;DHT22;487;50.126;8.698;2024-01-30T02:34:34;5.20;99.90
997;DHT22;487;50.126;8.698;2024-01-30T02:37:03;5.20;99.90
997;DHT22;487;50.126;8.698;2024-01-30T02:39:32;5.20;99.90
997;DHT22;487;50.126;8.698;2024-01-30T02:42:00;5.20;99.90
997;DHT22;487;50.126;8.698;2024-01-30T02:44:27;5.30;99.90
997;DHT22;487;50.126;8.698;2024-01-30T02:46:55;5.20;99.90
997;DHT22;487;50.126;8.698;2024-01-30T02:49:23;5.20;99.90
997;DHT22;487;50.126;8.698;2024-01-30T02:51:52;5.20;99.90
997;DHT22;487;50.126;8.698;2024-01-30T02:54:20;5.10;99.90
997;DHT22;487;50.126;8.698;2024-01-30T02:56:49;5.20;99.90
997;DHT22;487;50.126;8.698;2024-01-30T02:59:17;5.10;99.90
997;DHT22;487;50.126;8.698;2024-01-30T03:01:46;5.10;99.90
997;DHT22;487;50.126;8.698;2024-01-30T03:04:14;5.10;99.90
997;DHT22;487;50.126;8.698;2024-01-30T03:06:45;6.00;99.90
997;DHT22;487;50.126;8.698;2024-01-30T03:09:16;5.00;99.90
997;DHT22;487;50.126;8.698;2024-01-30T03:11:45;5.10;99.90
997;DHT22;487;50.126;8.698;2024-01-30T03:14:14;5.10;99.90
997;DHT22;487;50.126;8.698;2024-01-30T03:16:42;5.10;99.90
997;DHT22;487;50.126;8.698;2024-01-30T03:19:10;5.20;99.90
997;DHT22;487;50.126;8.698;2024-01-30T03:21:37;5.10;99.90
997;DHT22;487;50.126;8.698;2024-01-30T03:24:05;5.10;99.90
997;DHT22;487;50.126;8.698;2024-01-30T03:26:33;5.00;99.90
997;DHT22;487;50.126;8.698;2024-01-30T03:29:01;5.10;99.90
997;DHT22;487;50.126;8.698;2024-01-30T03:31:30;5.10;99.90
997;DHT22;487;50.126;8.698;2024-01-30T03:33:58;5.00;99.90
997;DHT22;487;50.126;8.698;2024-01-30T03:36:26;5.00;99.90
997;DHT22;487;50.126;8.698;2024-01-30T03:38:54;5.10;99.90
997;DHT22;487;50.126;8.698;2024-01-30T03:41:22;5.10;99.90
997;DHT22;487;50.126;8.698;2024-01-30T03:43:50;5.10;99.90
997;DHT22;487;50.126;8.698;2024-01-30T03:46:18;5.00;99.90
997;DHT22;487;50.126;8.698;2024-01-30T03:48:47;5.00;99.90
997;DHT22;487;50.126;8.698;2024-01-30T03:51:15;4.90;99.90
997;DHT22;487;50.126;8.698;2024-01-30T03:53:43;4.90;99.90
997;DHT22;487;50.126;8.698;2024-01-30T03:56:13;4.90;99.90
997;DHT22;487;50.126;8.698;2024-01-30T03:58:41;4.90;99.90
997;DHT22;487;50.126;8.698;2024-01-30T04:01:13;4.80;99.90
997;DHT22;487;50.126;8.698;2024-01-30T04:03:42;4.80;99.90
997;DHT22;487;50.126;8.698;2024-01-30T04:06:12;4.80;99.90
997;DHT22;487;50.126;8.698;2024-01-30T04:08:40;4.70;99.90
997;DHT22;487;50.126;8.698;2024-01-30T04:11:08;4.70;99.90
997;DHT22;487;50.126;8.698;2024-01-30T04:13:36;4.80;99.90
997;DHT22;487;50.126;8.698;2024-01-30T04:16:05;4.70;99.90
997;DHT22;487;50.126;8.698;2024-01-30T04:18:33;4.70;99.90
997;DHT22;487;50.126;8.698;2024-01-30T04:21:01;4.80;99.90
997;DHT22;487;50.126;8.698;2024-01-30T04:23:30;4.80;99.90
997;DHT22;487;50.126;8.698;2024-01-30T04:25:57;4.90;99.90
997;DHT22;487;50.126;8.698;2024-01-30T04:28:25;4.90;99.90
997;DHT22;487;50.126;8.698;2024-01-30T04:30:53;4.90;99.90
997;DHT22;487;50.126;8.698;2024-01-30T04:33:21;5.00;99.90
997;DHT22;487;50.126;8.698;2024-01-30T04:35:49;5.00;99.90
997;DHT22;487;50.126;8.698;2024-01-30T04:38:18;5.00;99.90
997;DHT22;487;50.126;8.698;2024-01-30T04:40:47;5.00;99.90
997;DHT22;487;50.126;8.698;2024-01-30T04:43:15;5.00;99.90
997;DHT22;487;50.126;8.698;2024-01-30T04:45:43;5.00;99.90
997;DHT22;487;50.126;8.698;2024-01-30T04:48:11;5.00;99.90
997;DHT22;487;50.126;8.698;2024-01-30T04:50:39;5.00;99.90
997;DHT22;487;50.126;8.698;2024-01-30T04:53:07;5.00;99.90
997;DHT22;487;50.126;8.698;2024-01-30T04:58:05;5.10;99.90
997;DHT22;487;50.126;8.698;2024-01-30T05:00:33;5.10;99.90
997;DHT22;487;50.126;8.698;2024-01-30T05:03:01;5.00;99.90
997;DHT22;487;50.126;8.698;2024-01-30T05:05:29;4.90;99.90
997;DHT22;487;50.126;8.698;2024-01-30T05:07:56;4.80;99.90
997;DHT22;487;50.126;8.698;2024-01-30T05:10:24;4.70;99.90
997;DHT22;487;50.126;8.698;2024-01-30T05:12:52;4.70;99.90
997;DHT22;487;50.126;8.698;2024-01-30T05:15:21;4.60;99.90
997;DHT22;487;50.126;8.698;2024-01-30T05:17:49;4.50;99.90
997;DHT22;487;50.126;8.698;2024-01-30T05:20:17;4.50;99.90
997;DHT22;487;50.126;8.698;2024-01-30T05:22:45;4.60;99.90
997;DHT22;487;50.126;8.698;2024-01-30T05:25:13;4.60;99.90
997;DHT22;487;50.126;8.698;2024-01-30T05:27:41;4.60;99.90
997;DHT22;487;50.126;8.698;2024-01-30T05:30:10;4.50;99.90
997;DHT22;487;50.126;8.698;2024-01-30T05:32:40;4.50;99.90
997;DHT22;487;50.126;8.698;2024-01-30T05:35:08;4.50;99.90
997;DHT22;487;50.126;8.698;2024-01-30T05:37:35;4.40;99.90
997;DHT22;487;50.126;8.698;2024-01-30T05:40:04;4.40;99.90
997;DHT22;487;50.126;8.698;2024-01-30T05:42:32;4.30;99.90
997;DHT22;487;50.126;8.698;2024-01-30T05:45:00;4.30;99.90
997;DHT22;487;50.126;8.698;2024-01-30T05:47:28;4.30;99.90
997;DHT22;487;50.126;8.698;2024-01-30T05:49:58;4.30;99.90
997;DHT22;487;50.126;8.698;2024-01-30T05:52:26;4.30;99.90
997;DHT22;487;50.126;8.698;2024-01-30T05:54:54;4.40;99.90
997;DHT22;487;50.126;8.698;2024-01-30T05:57:21;5.30;99.90
997;DHT22;487;50.126;8.698;2024-01-30T05:59:49;4.30;99.90
997;DHT22;487;50.126;8.698;2024-01-30T06:02:18;4.30;99.90
997;DHT22;487;50.126;8.698;2024-01-30T06:04:46;4.40;99.90
997;DHT22;487;50.126;8.698;2024-01-30T06:07:16;4.40;99.90
997;DHT22;487;50.126;8.698;2024-01-30T06:09:44;4.40;99.90
997;DHT22;487;50.126;8.698;2024-01-30T06:12:13;4.30;99.90
997;DHT22;487;50.126;8.698;2024-01-30T06:14:41;4.30;99.90
997;DHT22;487;50.126;8.698;2024-01-30T06:17:13;4.20;99.90
997;DHT22;487;50.126;8.698;2024-01-30T06:19:41;4.20;99.90
997;DHT22;487;50.126;8.698;2024-01-30T06:22:09;4.30;99.90
997;DHT22;487;50.126;8.698;2024-01-30T06:24:38;4.30;99.90
997;DHT22;487;50.126;8.698;2024-01-30T06:29:34;4.30;99.90
997;DHT22;487;50.126;8.698;2024-01-30T06:32:02;4.30;99.90
997;DHT22;487;50.126;8.698;2024-01-30T06:34:30;4.20;99.90
997;DHT22;487;50.126;8.698;2024-01-30T06:36:58;4.30;99.90
997;DHT22;487;50.126;8.698;2024-01-30T06:39:26;4.30;99.90
997;DHT22;487;50.126;8.698;2024-01-30T06:41:55;4.40;99.90
997;DHT22;487;50.126;8.698;2024-01-30T06:44:23;4.40;99.90
997;DHT22;487;50.126;8.698;2024-01-30T06:46:51;4.50;99.90
997;DHT22;487;50.126;8.698;2024-01-30T06:49:19;4.40;99.90
997;DHT22;487;50.126;8.698;2024-01-30T06:51:48;4.40;99.90
997;DHT22;487;50.126;8.698;2024-01-30T06:54:16;4.40;99.90
997;DHT22;487;50.126;8.698;2024-01-30T06:56:44;4.50;99.90
997;DHT22;487;50.126;8.698;2024-01-30T06:59:13;4.50;99.90
997;DHT22;487;50.126;8.698;2024-01-30T07:01:41;4.50;99.90
997;DHT22;487;50.126;8.698;2024-01-30T07:04:09;4.50;99.90
997;DHT22;487;50.126;8.698;2024-01-30T07:06:37;4.60;99.90
997;DHT22;487;50.126;8.698;2024-01-30T07:09:05;4.60;99.90
997;DHT22;487;50.126;8.698;2024-01-30T07:11:33;4.60;99.90
997;DHT22;487;50.126;8.698;2024-01-30T07:16:31;2.90;99.90
997;DHT22;487;50.126;8.698;2024-01-30T07:18:59;4.60;99.90
997;DHT22;487;50.126;8.698;2024-01-30T07:21:27;4.70;99.90
997;DHT22;487;50.126;8.698;2024-01-30T07:26:23;4.60;99.90
997;DHT22;487;50.126;8.698;2024-01-30T07:28:51;4.60;99.90
997;DHT22;487;50.126;8.698;2024-01-30T07:31:19;4.60;99.90
997;DHT22;487;50.126;8.698;2024-01-30T07:33:51;4.60;99.90
997;DHT22;487;50.126;8.698;2024-01-30T07:36:19;4.50;99.90
997;DHT22;487;50.126;8.698;2024-01-30T07:38:47;3.00;99.90
997;DHT22;487;50.126;8.698;2024-01-30T07:41:15;4.60;99.90
997;DHT22;487;50.126;8.698;2024-01-30T07:43:43;4.60;99.90
997;DHT22;487;50.126;8.698;2024-01-30T07:46:11;4.60;99.90
997;DHT22;487;50.126;8.698;2024-01-30T07:48:39;4.70;99.90
997;DHT22;487;50.126;8.698;2024-01-30T07:51:08;4.70;99.90
997;DHT22;487;50.126;8.698;2024-01-30T07:53:36;4.70;99.90
997;DHT22;487;50.126;8.698;2024-01-30T07:56:05;4.80;99.90
997;DHT22;487;50.126;8.698;2024-01-30T08:01:02;4.80;99.90
997;DHT22;487;50.126;8.698;2024-01-30T08:03:30;4.90;99.90
997;DHT22;487;50.126;8.698;2024-01-30T08:05:57;4.90;99.90
997;DHT22;487;50.126;8.698;2024-01-30T08:08:27;4.90;99.90
997;DHT22;487;50.126;8.698;2024-01-30T08:10:55;4.90;99.90
997;DHT22;487;50.126;8.698;2024-01-30T08:13:22;5.00;99.90
997;DHT22;487;50.126;8.698;2024-01-30T08:15:50;5.10;99.90
997;DHT22;487;50.126;8.698;2024-01-30T08:18:18;5.10;99.90
997;DHT22;487;50.126;8.698;2024-01-30T08:20:46;5.20;99.90
997;DHT22;487;50.126;8.698;2024-01-30T08:23:15;5.20;99.90
997;DHT22;487;50.126;8.698;2024-01-30T08:25:45;5.20;99.90
997;DHT22;487;50.126;8.698;2024-01-30T08:28:13;5.30;99.90
997;DHT22;487;50.126;8.698;2024-01-30T08:30:43;5.40;99.90
997;DHT22;487;50.126;8.698;2024-01-30T08:33:11;5.40;99.90
997;DHT22;487;50.126;8.698;2024-01-30T08:35:39;5.50;99.90
997;DHT22;487;50.126;8.698;2024-01-30T08:38:07;5.50;99.90
997;DHT22;487;50.126;8.698;2024-01-30T08:40:35;5.50;99.90
997;DHT22;487;50.126;8.698;2024-01-30T08:43:04;5.60;99.90
997;DHT22;487;50.126;8.698;2024-01-30T08:45:33;5.60;99.90
997;DHT22;487;50.126;8.698;2024-01-30T08:48:00;7.20;99.90
997;DHT22;487;50.126;8.698;2024-01-30T08:50:28;5.80;99.90
997;DHT22;487;50.126;8.698;2024-01-30T08:52:56;5.80;99.90
997;DHT22;487;50.126;8.698;2024-01-30T08:55:24;5.80;99.90
997;DHT22;487;50.126;8.698;2024-01-30T08:57:52;5.80;99.90
997;DHT22;487;50.126;8.698;2024-01-30T09:00:22;5.90;99.90
997;DHT22;487;50.126;8.698;2024-01-30T09:02:50;6.00;99.90
997;DHT22;487;50.126;8.698;2024-01-30T09:05:17;6.00;99.90
997;DHT22;487;50.126;8.698;2024-01-30T09:07:45;6.00;99.90
997;DHT22;487;50.126;8.698;2024-01-30T09:10:14;6.10;99.90
997;DHT22;487;50.126;8.698;2024-01-30T09:12:46;6.10;99.90
997;DHT22;487;50.126;8.698;2024-01-30T09:15:14;6.10;99.90
997;DHT22;487;50.126;8.698;2024-01-30T09:17:44;6.20;99.90
997;DHT22;487;50.126;8.698;2024-01-30T09:20:12;6.20;99.90
997;DHT22;487;50.126;8.698;2024-01-30T09:22:40;6.20;99.90
997;DHT22;487;50.126;8.698;2024-01-30T09:25:08;6.20;99.90
997;DHT22;487;50.126;8.698;2024-01-30T09:27:36;6.20;99.90
997;DHT22;487;50.126;8.698;2024-01-30T09:30:05;6.30;99.90
997;DHT22;487;50.126;8.698;2024-01-30T09:32:34;6.30;99.90
997;DHT22;487;50.126;8.698;2024-01-30T09:35:03;6.30;99.90
997;DHT22;487;50.126;8.698;2024-01-30T09:37:32;6.30;99.90
997;DHT22;487;50.126;8.698;2024-01-30T09:40:00;6.30;99.90
997;DHT22;487;50.126;8.698;2024-01-30T09:42:33;6.30;99.90
997;DHT22;487;50.126;8.698;2024-01-30T09:45:02;6.30;99.90
997;DHT22;487;50.126;8.698;2024-01-30T09:47:32;6.20;99.90
997;DHT22;487;50.126;8.698;2024-01-30T09:52:31;6.20;99.90
997;DHT22;487;50.126;8.698;2024-01-30T09:55:00;6.30;99.90
997;DHT22;487;50.126;8.698;2024-01-30T09:57:29;6.30;99.90
997;DHT22;487;50.126;8.698;2024-01-30T09:59:57;6.30;99.90
997;DHT22;487;50.126;8.698;2024-01-30T10:02:25;6.30;99.90
997;DHT22;487;50.126;8.698;2024-01-30T10:04:53;6.40;99.90
997;DHT22;487;50.126;8.698;2024-01-30T10:07:21;6.40;99.90
997;DHT22;487;50.126;8.698;2024-01-30T10:09:52;6.50;99.90
997;DHT22;487;50.126;8.698;2024-01-30T10:12:22;6.50;99.90
997;DHT22;487;50.126;8.698;2024-01-30T10:14:49;6.50;99.90
997;DHT22;487;50.126;8.698;2024-01-30T10:17:17;6.50;99.90
997;DHT22;487;50.126;8.698;2024-01-30T10:19:58;6.50;99.90
997;DHT22;487;50.126;8.698;2024-01-30T10:22:28;6.60;99.90
997;DHT22;487;50.126;8.698;2024-01-30T10:24:58;6.60;99.90
997;DHT22;487;50.126;8.698;2024-01-30T10:27:31;6.60;99.90
997;DHT22;487;50.126;8.698;2024-01-30T10:29:59;6.70;99.90
997;DHT22;487;50.126;8.698;2024-01-30T10:32:27;6.70;99.90
997;DHT22;487;50.126;8.698;2024-01-30T10:34:55;6.70;99.90
997;DHT22;487;50.126;8.698;2024-01-30T10:37:25;6.80;99.90
997;DHT22;487;50.126;8.698;2024-01-30T10:39:54;6.80;99.90
997;DHT22;487;50.126;8.698;2024-01-30T10:42:26;6.80;99.90
997;DHT22;487;50.126;8.698;2024-01-30T10:45:00;6.80;99.90
997;DHT22;487;50.126;8.698;2024-01-30T10:47:30;6.90;99.90
997;DHT22;487;50.126;8.698;2024-01-30T10:49:58;6.90;99.90
997;DHT22;487;50.126;8.698;2024-01-30T10:52:26;6.90;99.90
997;DHT22;487;50.126;8.698;2024-01-30T10:54:56;7.00;99.90
997;DHT22;487;50.126;8.698;2024-01-30T10:57:26;7.00;99.90
997;DHT22;487;50.126;8.698;2024-01-30T10:59:56;7.10;99.90
997;DHT22;487;50.126;8.698;2024-01-30T11:04:56;7.20;99.90
997;DHT22;487;50.126;8.698;2024-01-30T11:07:25;7.20;99.90
997;DHT22;487;50.126;8.698;2024-01-30T11:09:59;7.30;99.90
997;DHT22;487;50.126;8.698;2024-01-30T11:12:30;7.30;99.90
997;DHT22;487;50.126;8.698;2024-01-30T11:15:04;7.40;99.90
997;DHT22;487;50.126;8.698;2024-01-30T11:17:42;7.40;99.90
997;DHT22;487;50.126;8.698;2024-01-30T11:20:11;7.50;99.90
997;DHT22;487;50.126;8.698;2024-01-30T11:22:42;7.50;99.90
997;DHT22;487;50.126;8.698;2024-01-30T11:25:12;7.60;99.90
997;DHT22;487;50.126;8.698;2024-01-30T11:27:42;7.60;99.90
997;DHT22;487;50.126;8.698;2024-01-30T11:30:20;7.70;99.90
997;DHT22;487;50.126;8.698;2024-01-30T11:32:58;7.80;99.90
997;DHT22;487;50.126;8.698;2024-01-30T11:35:28;7.80;99.90
997;DHT22;487;50.126;8.698;2024-01-30T11:37:57;7.90;99.90
997;DHT22;487;50.126;8.698;2024-01-30T11:40:27;7.90;99.90
997;DHT22;487;50.126;8.698;2024-01-30T11:42:58;8.00;99.90
997;DHT22;487;50.126;8.698;2024-01-30T11:45:28;8.10;99.90
997;DHT22;487;50.126;8.698;2024-01-30T11:47:56;8.20;99.90
997;DHT22;487;50.126;8.698;2024-01-30T11:50:27;8.30;99.90
997;DHT22;487;50.126;8.698;2024-01-30T11:52:55;8.40;99.90
997;DHT22;487;50.126;8.698;2024-01-30T11:55:24;8.40;99.90
997;DHT22;487;50.126;8.698;2024-01-30T11:57:56;8.50;99.90
997;DHT22;487;50.126;8.698;2024-01-30T12:00:25;8.60;99.90
997;DHT22;487;50.126;8.698;2024-01-30T12:02:54;8.50;99.90
997;DHT22;487;50.126;8.698;2024-01-30T12:05:24;8.50;99.90
997;DHT22;487;50.126;8.698;2024-01-30T12:07:52;8.60;99.90
997;DHT22;487;50.126;8.698;2024-01-30T12:10:21;8.60;99.90
997;DHT22;487;50.126;8.698;2024-01-30T12:12:50;8.60;99.90
997;DHT22;487;50.126;8.698;2024-01-30T12:15:21;8.60;99.90
997;DHT22;487;50.126;8.698;2024-01-30T12:17:50;8.60;99.90
997;DHT22;487;50.126;8.698;2024-01-30T12:20:19;8.50;99.90
997;DHT22;487;50.126;8.698;2024-01-30T12:22:49;8.50;99.90
997;DHT22;487;50.126;8.698;2024-01-30T12:25:19;8.60;99.90
997;DHT22;487;50.126;8.698;2024-01-30T12:27:50;8.50;99.90
997;DHT22;487;50.126;8.698;2024-01-30T12:30:21;8.50;99.90
997;DHT22;487;50.126;8.698;2024-01-30T12:32:50;8.50;99.90
997;DHT22;487;50.126;8.698;2024-01-30T12:35:19;8.50;99.90
997;DHT22;487;50.126;8.698;2024-01-30T12:37:49;8.50;99.90
997;DHT22;487;50.126;8.698;2024-01-30T12:40:20;8.50;99.90
997;DHT22;487;50.126;8.698;2024-01-30T12:42:48;8.60;99.90
997;DHT22;487;50.126;8.698;2024-01-30T12:45:17;8.60;99.90
997;DHT22;487;50.126;8.698;2024-01-30T12:50:17;8.70;99.90
997;DHT22;487;50.126;8.698;2024-01-30T12:52:46;8.80;99.90
997;DHT22;487;50.126;8.698;2024-01-30T12:55:16;8.70;99.90
997;DHT22;487;50.126;8.698;2024-01-30T12:57:45;8.70;99.90
997;DHT22;487;50.126;8.698;2024-01-30T13:00:13;8.70;99.90
997;DHT22;487;50.126;8.698;2024-01-30T13:02:44;8.70;99.90
997;DHT22;487;50.126;8.698;2024-01-30T13:05:13;8.80;99.90
997;DHT22;487;50.126;8.698;2024-01-30T13:07:42;8.90;99.90
997;DHT22;487;50.126;8.698;2024-01-30T13:10:10;9.00;99.90
997;DHT22;487;50.126;8.698;2024-01-30T13:15:07;9.20;99.90
997;DHT22;487;50.126;8.698;2024-01-30T13:17:35;9.30;99.90
997;DHT22;487;50.126;8.698;2024-01-30T13:20:04;9.40;99.90
997;DHT22;487;50.126;8.698;2024-01-30T13:22:40;9.40;99.90
997;DHT22;487;50.126;8.698;2024-01-30T13:25:08;9.60;99.90
997;DHT22;487;50.126;8.698;2024-01-30T13:27:36;9.60;99.90
997;DHT22;487;50.126;8.698;2024-01-30T13:30:07;9.50;99.90
997;DHT22;487;50.126;8.698;2024-01-30T13:32:36;9.50;99.60
997;DHT22;487;50.126;8.698;2024-01-30T13:35:04;9.50;99.70
997;DHT22;487;50.126;8.698;2024-01-30T13:37:33;9.50;98.90
997;DHT22;487;50.126;8.698;2024-01-30T13:40:03;9.50;99.00
997;DHT22;487;50.126;8.698;2024-01-30T13:45:06;9.40;99.40
997;DHT22;487;50.126;8.698;2024-01-30T13:47:36;9.40;99.50
997;DHT22;487;50.126;8.698;2024-01-30T13:50:05;9.40;99.80
997;DHT22;487;50.126;8.698;2024-01-30T13:52:33;9.40;99.90
997;DHT22;487;50.126;8.698;2024-01-30T13:55:11;9.40;99.90
997;DHT22;487;50.126;8.698;2024-01-30T13:57:40;9.40;99.90
997;DHT22;487;50.126;8.698;2024-01-30T14:00:09;9.40;99.90
997;DHT22;487;50.126;8.698;2024-01-30T14:02:37;9.50;99.90
997;DHT22;487;50.126;8.698;2024-01-30T14:05:05;9.50;99.90
997;DHT22;487;50.126;8.698;2024-01-30T14:07:35;9.50;99.90
997;DHT22;487;50.126;8.698;2024-01-30T14:10:03;9.50;99.90
997;DHT22;487;50.126;8.698;2024-01-30T14:12:38;9.50;99.90
997;DHT22;487;50.126;8.698;2024-01-30T14:15:08;9.50;99.90
997;DHT22;487;50.126;8.698;2024-01-30T14:17:53;9.50;99.90
997;DHT22;487;50.126;8.698;2024-01-30T14:20:22;9.50;99.90
997;DHT22;487;50.126;8.698;2024-01-30T14:22:50;9.50;99.90
997;DHT22;487;50.126;8.698;2024-01-30T14:25:18;9.40;99.90
997;DHT22;487;50.126;8.698;2024-01-30T14:27:47;9.40;99.90
997;DHT22;487;50.126;8.698;2024-01-30T14:32:44;9.40;99.90
997;DHT22;487;50.126;8.698;2024-01-30T14:35:13;9.40;99.90
997;DHT22;487;50.126;8.698;2024-01-30T14:37:41;9.40;99.90
997;DHT22;487;50.126;8.698;2024-01-30T14:40:09;9.40;99.90
997;DHT22;487;50.126;8.698;2024-01-30T14:42:38;9.40;99.90
997;DHT22;487;50.126;8.698;2024-01-30T14:45:07;9.40;99.90
997;DHT22;487;50.126;8.698;2024-01-30T14:47:36;9.40;99.90
997;DHT22;487;50.126;8.698;2024-01-30T14:50:05;9.40;99.90
997;DHT22;487;50.126;8.698;2024-01-30T14:52:35;9.40;99.90
997;DHT22;487;50.126;8.698;2024-01-30T14:55:04;9.50;99.90
997;DHT22;487;50.126;8.698;2024-01-30T14:57:32;9.50;99.90
997;DHT22;487;50.126;8.698;2024-01-30T15:00:01;9.50;99.90
997;DHT22;487;50.126;8.698;2024-01-30T15:02:31;9.50;99.90
997;DHT22;487;50.126;8.698;2024-01-30T15:04:58;9.60;99.90
997;DHT22;487;50.126;8.698;2024-01-30T15:07:27;9.60;99.90
997;DHT22;487;50.126;8.698;2024-01-30T15:10:06;9.50;99.90
997;DHT22;487;50.126;8.698;2024-01-30T15:12:35;9.50;99.90
997;DHT22;487;50.126;8.698;2024-01-30T15:15:04;9.50;99.90
997;DHT22;487;50.126;8.698;2024-01-30T15:17:33;9.50;99.90
997;DHT22;487;50.126;8.698;2024-01-30T15:20:02;9.50;99.90
997;DHT22;487;50.126;8.698;2024-01-30T15:22:31;9.50;99.90
997;DHT22;487;50.126;8.698;2024-01-30T15:24:59;9.50;99.90
997;DHT22;487;50.126;8.698;2024-01-30T15:27:27;9.40;99.90
997;DHT22;487;50.126;8.698;2024-01-30T15:29:56;9.40;99.90
997;DHT22;487;50.126;8.698;2024-01-30T15:32:24;9.40;99.90
997;DHT22;487;50.126;8.698;2024-01-30T15:34:54;9.40;99.90
997;DHT22;487;50.126;8.698;2024-01-30T15:37:23;9.40;99.90
997;DHT22;487;50.126;8.698;2024-01-30T15:39:51;9.30;99.90
997;DHT22;487;50.126;8.698;2024-01-30T15:42:19;9.30;99.90
997;DHT22;487;50.126;8.698;2024-01-30T15:44:47;9.30;99.90
997;DHT22;487;50.126;8.698;2024-01-30T15:49:44;9.30;99.90
997;DHT22;487;50.126;8.698;2024-01-30T15:52:14;9.30;99.90
997;DHT22;487;50.126;8.698;2024-01-30T15:54:44;9.30;99.90
997;DHT22;487;50.126;8.698;2024-01-30T15:57:12;9.20;99.90
997;DHT22;487;50.126;8.698;2024-01-30T15:59:40;9.20;99.90
997;DHT22;487;50.126;8.698;2024-01-30T16:02:09;9.20;99.90
997;DHT22;487;50.126;8.698;2024-01-30T16:04:37;9.20;99.90
997;DHT22;487;50.126;8.698;2024-01-30T16:07:05;9.20;99.90
997;DHT22;487;50.126;8.698;2024-01-30T16:09:34;12.50;99.90
997;DHT22;487;50.126;8.698;2024-01-30T16:12:03;9.20;99.90
997;DHT22;487;50.126;8.698;2024-01-30T16:14:30;9.20;99.90
997;DHT22;487;50.126;8.698;2024-01-30T16:17:00;9.20;99.90
997;DHT22;487;50.126;8.698;2024-01-30T16:19:28;9.20;99.90
997;DHT22;487;50.126;8.698;2024-01-30T16:21:56;9.20;99.90
997;DHT22;487;50.126;8.698;2024-01-30T16:24:24;9.20;99.90
997;DHT22;487;50.126;8.698;2024-01-30T16:26:53;9.10;99.90
997;DHT22;487;50.126;8.698;2024-01-30T16:29:23;9.10;99.90
997;DHT22;487;50.126;8.698;2024-01-30T16:31:51;9.10;99.90
997;DHT22;487;50.126;8.698;2024-01-30T16:34:19;9.10;99.90
997;DHT22;487;50.126;8.698;2024-01-30T16:36:47;9.10;99.90
997;DHT22;487;50.126;8.698;2024-01-30T16:39:16;9.10;99.90
997;DHT22;487;50.126;8.698;2024-01-30T16:41:50;9.10;99.90
997;DHT22;487;50.126;8.698;2024-01-30T16:44:26;9.10;99.90
997;DHT22;487;50.126;8.698;2024-01-30T16:49:22;9.10;99.90
997;DHT22;487;50.126;8.698;2024-01-30T16:51:50;9.20;99.90
997;DHT22;487;50.126;8.698;2024-01-30T16:54:18;9.20;99.90
997;DHT22;487;50.126;8.698;2024-01-30T16:56:46;9.20;99.90
997;DHT22;487;50.126;8.698;2024-01-30T16:59:15;9.20;99.90
997;DHT22;487;50.126;8.698;2024-01-30T17:01:46;9.20;99.90
997;DHT22;487;50.126;8.698;2024-01-30T17:04:15;9.20;99.90
997;DHT22;487;50.126;8.698;2024-01-30T17:06:45;9.20;99.90
997;DHT22;487;50.126;8.698;2024-01-30T17:09:13;9.30;99.90
997;DHT22;487;50.126;8.698;2024-01-30T17:11:42;9.30;99.90
997;DHT22;487;50.126;8.698;2024-01-30T17:16:40;9.30;99.90
997;DHT22;487;50.126;8.698;2024-01-30T17:19:10;9.30;99.90
997;DHT22;487;50.126;8.698;2024-01-30T17:21:38;9.30;99.90
997;DHT22;487;50.126;8.698;2024-01-30T17:24:06;9.30;99.90
997;DHT22;487;50.126;8.698;2024-01-30T17:26:34;9.30;99.90
997;DHT22;487;50.126;8.698;2024-01-30T17:29:03;9.30;99.90
997;DHT22;487;50.126;8.698;2024-01-30T17:31:32;9.30;99.90
997;DHT22;487;50.126;8.698;2024-01-30T17:34:00;9.30;99.90
997;DHT22;487;50.126;8.698;2024-01-30T17:36:29;9.30;99.90
997;DHT22;487;50.126;8.698;2024-01-30T17:38:57;9.30;99.90